Time;durP1;ratioP1;P1;durP2;ratioP2;P2;SDS_P1;SDS_P2;PMS_P1;PMS_P2;Temp;Humidity;BMP_temperature;BMP_pressure;BME280_temperature;BME280_humidity;BME280_pressure;Samples;Min_cycle;Max_cycle;Signal;HPM_P1;HPM_P2
2021/10/13 00:01:50;;;;;;;32.92;20.67;;;11.60;99.90;;;;;;4975631;28;20494;-76
2021/10/13 00:04:16;;;;;;;37.28;21.15;;;11.60;99.90;;;;;;4992874;28;20076;-76
2021/10/13 00:06:42;;;;;;;33.97;21.95;;;11.50;99.90;;;;;;4991778;28;20063;-76
2021/10/13 00:09:08;;;;;;;32.13;21.23;;;11.60;99.90;;;;;;4991641;28;20030;-76
2021/10/13 00:11:34;;;;;;;32.10;20.75;;;11.50;99.90;;;;;;4992942;28;20034;-76
2021/10/13 00:14:01;;;;;;;36.40;22.02;;;11.50;99.90;;;;;;4991732;28;20081;-76
2021/10/13 00:16:30;;;;;;;35.88;21.77;;;11.50;99.90;;;;;;4991573;28;20121;-76
2021/10/13 00:18:55;;;;;;;33.45;20.25;;;11.40;99.90;;;;;;4992853;28;20026;-76
2021/10/13 00:21:21;;;;;;;38.13;22.75;;;11.40;99.90;;;;;;4992781;28;20439;-77
2021/10/13 00:23:47;;;;;;;38.78;21.70;;;11.40;99.90;;;;;;4991168;28;20057;-76
2021/10/13 00:26:13;;;;;;;31.98;21.50;;;11.50;99.90;;;;;;4992687;28;20452;-76
2021/10/13 00:28:38;;;;;;;33.88;21.00;;;11.50;99.90;;;;;;4991470;28;20034;-76
2021/10/13 00:31:04;;;;;;;35.47;22.60;;;11.50;99.90;;;;;;4987671;28;20030;-76
2021/10/13 00:33:30;;;;;;;39.00;22.38;;;11.50;99.90;;;;;;4977722;28;20507;-76
2021/10/13 00:35:55;;;;;;;34.30;21.95;;;11.50;99.90;;;;;;4990609;28;20043;-76
2021/10/13 00:38:21;;;;;;;36.38;21.33;;;11.50;99.90;;;;;;4976129;28;20041;-76
2021/10/13 00:40:47;;;;;;;31.02;20.40;;;11.50;99.90;;;;;;4992349;28;20027;-76
2021/10/13 00:43:16;;;;;;;33.38;21.17;;;11.40;99.90;;;;;;4993942;28;20396;-76
2021/10/13 00:45:41;;;;;;;34.40;20.75;;;11.40;99.90;;;;;;4991573;28;21606;-76
2021/10/13 00:48:07;;;;;;;35.25;22.20;;;11.40;99.90;;;;;;4992578;28;20075;-76
2021/10/13 00:50:33;;;;;;;31.85;19.95;;;11.40;99.90;;;;;;4992698;28;20385;-76
2021/10/13 00:52:59;;;;;;;38.58;22.48;;;11.40;99.90;;;;;;4974864;28;20031;-76
2021/10/13 00:55:25;;;;;;;36.78;22.33;;;11.40;99.90;;;;;;4991917;28;20034;-76
2021/10/13 00:57:51;;;;;;;35.47;21.77;;;11.40;99.90;;;;;;4974845;28;20031;-76
2021/10/13 01:00:20;;;;;;;34.67;21.40;;;11.40;99.90;;;;;;4991569;28;20050;-76
2021/10/13 01:02:55;;;;;;;34.00;20.58;;;11.40;99.90;;;;;;4974200;28;20025;-76
2021/10/13 01:05:20;;;;;;;33.10;20.27;;;11.40;99.90;;;;;;4991484;28;20471;-76
2021/10/13 01:08:21;;;;;;;36.33;21.45;;;11.40;99.90;;;;;;4990941;28;20045;-76
2021/10/13 01:11:09;;;;;;;34.67;20.88;;;11.40;99.90;;;;;;4985054;28;20026;-78
2021/10/13 01:14:02;;;;;;;34.85;21.35;;;11.30;99.90;;;;;;4992150;28;20593;-77
2021/10/13 01:16:49;;;;;;;34.83;21.50;;;11.30;99.90;;;;;;4995035;28;20026;-78
2021/10/13 01:19:46;;;;;;;33.05;20.85;;;11.30;99.90;;;;;;4994811;28;20034;-78
2021/10/13 01:22:15;;;;;;;30.15;18.92;;;11.20;99.90;;;;;;4994790;28;20058;-78
2021/10/13 01:24:59;;;;;;;30.92;20.33;;;11.20;99.90;;;;;;4995925;28;20047;-78
2021/10/13 01:27:52;;;;;;;38.78;21.30;;;11.20;99.90;;;;;;4995255;28;20479;-78
2021/10/13 01:30:19;;;;;;;33.47;20.52;;;11.20;99.90;;;;;;4992808;28;20369;-78
2021/10/13 01:32:55;;;;;;;31.55;19.67;;;11.30;99.90;;;;;;4994033;28;20084;-78
2021/10/13 01:35:22;;;;;;;32.30;20.50;;;11.20;99.90;;;;;;4993990;28;20026;-78
2021/10/13 01:37:53;;;;;;;34.55;20.58;;;11.20;99.90;;;;;;4994046;28;20499;-78
2021/10/13 01:40:23;;;;;;;34.90;19.45;;;11.20;99.90;;;;;;4993890;28;20029;-78
2021/10/13 01:42:51;;;;;;;29.98;19.38;;;11.20;99.90;;;;;;4992698;28;20488;-78
2021/10/13 01:45:19;;;;;;;32.97;19.48;;;11.20;99.90;;;;;;4994138;28;20113;-78
2021/10/13 01:47:46;;;;;;;35.13;20.73;;;11.20;99.90;;;;;;4995701;28;20109;-78
2021/10/13 01:50:13;;;;;;;33.65;19.73;;;11.10;99.90;;;;;;4994597;28;20477;-78
2021/10/13 01:52:40;;;;;;;32.25;20.05;;;11.10;99.90;;;;;;4993963;28;20396;-78
2021/10/13 01:55:07;;;;;;;30.65;19.73;;;11.10;99.90;;;;;;4995453;28;20023;-78
2021/10/13 01:57:34;;;;;;;31.10;19.45;;;11.10;99.90;;;;;;4995358;28;20065;-78
2021/10/13 02:00:05;;;;;;;28.92;19.73;;;11.10;99.90;;;;;;4995383;28;20026;-78
2021/10/13 02:02:32;;;;;;;30.58;19.77;;;11.10;99.90;;;;;;4995293;28;20051;-78
2021/10/13 02:04:59;;;;;;;31.38;19.05;;;11.10;99.90;;;;;;4995342;28;20040;-77
2021/10/13 02:07:27;;;;;;;29.20;19.08;;;11.10;99.90;;;;;;4977793;28;20419;-77
2021/10/13 02:09:58;;;;;;;28.63;19.45;;;11.10;99.90;;;;;;4995282;28;20026;-77
2021/10/13 02:12:25;;;;;;;30.60;19.48;;;11.10;99.90;;;;;;4995199;28;20039;-77
2021/10/13 02:14:53;;;;;;;30.50;19.17;;;11.10;99.90;;;;;;4995096;28;20038;-77
2021/10/13 02:17:21;;;;;;;29.27;19.25;;;11.10;99.90;;;;;;4995148;28;20030;-78
2021/10/13 02:19:48;;;;;;;31.75;20.10;;;11.10;99.90;;;;;;4994974;28;20049;-78
2021/10/13 02:22:16;;;;;;;30.92;19.70;;;11.10;99.90;;;;;;4977478;28;20026;-78
2021/10/13 02:24:48;;;;;;;31.63;19.83;;;11.10;99.90;;;;;;4994688;28;20105;-78
2021/10/13 02:27:27;;;;;;;32.33;19.20;;;11.10;99.90;;;;;;4994903;28;20484;-78
2021/10/13 02:29:53;;;;;;;30.52;19.00;;;11.10;99.90;;;;;;4994677;28;20076;-77
2021/10/13 02:32:18;;;;;;;29.45;18.55;;;11.10;99.90;;;;;;4994789;28;20431;-77
2021/10/13 02:34:44;;;;;;;29.90;17.95;;;11.10;99.90;;;;;;4994761;28;20063;-77
2021/10/13 02:37:10;;;;;;;30.80;20.45;;;11.10;99.90;;;;;;4977147;28;20413;-77
2021/10/13 02:39:36;;;;;;;32.63;20.55;;;11.10;99.90;;;;;;4994656;28;20206;-77
2021/10/13 02:42:03;;;;;;;31.13;19.77;;;11.10;99.90;;;;;;4994614;28;20026;-78
2021/10/13 02:44:29;;;;;;;30.40;19.77;;;11.20;99.90;;;;;;4977093;28;20026;-78
2021/10/13 02:47:22;;;;;;;32.42;19.00;;;11.20;99.90;;;;;;4994599;28;20101;-77
2021/10/13 02:50:06;;;;;;;30.33;17.98;;;11.20;99.90;;;;;;4977010;28;20121;-78
2021/10/13 02:52:50;;;;;;;31.52;19.95;;;11.20;99.90;;;;;;4994451;28;20027;-78
2021/10/13 02:55:22;;;;;;;31.48;19.70;;;11.20;99.90;;;;;;4996191;28;20113;-78
2021/10/13 02:58:21;;;;;;;30.30;19.70;;;11.20;99.90;;;;;;4994420;28;20050;-77
2021/10/13 03:00:50;;;;;;;30.65;19.00;;;11.20;99.90;;;;;;4994536;28;20026;-78
2021/10/13 03:03:38;;;;;;;32.05;20.33;;;11.10;99.90;;;;;;4976781;28;20117;-77
2021/10/13 03:06:04;;;;;;;28.60;19.17;;;11.10;99.90;;;;;;4994206;28;20030;-77
2021/10/13 03:08:34;;;;;;;31.30;19.23;;;11.10;99.90;;;;;;4976978;28;20029;-78
2021/10/13 03:11:02;;;;;;;32.63;19.08;;;11.10;99.90;;;;;;4994063;28;20019;-78
2021/10/13 03:13:33;;;;;;;33.67;20.58;;;11.20;99.90;;;;;;4994026;28;20057;-77
2021/10/13 03:16:01;;;;;;;31.48;19.17;;;11.20;99.90;;;;;;4994030;28;20511;-77
2021/10/13 03:18:29;;;;;;;31.15;19.45;;;11.20;99.90;;;;;;4976547;28;20479;-78
2021/10/13 03:20:55;;;;;;;29.95;18.60;;;11.20;99.90;;;;;;4993756;28;20042;-77
2021/10/13 03:23:22;;;;;;;29.20;19.00;;;11.30;99.90;;;;;;4976094;28;20053;-77
2021/10/13 03:25:51;;;;;;;32.95;20.48;;;11.30;99.90;;;;;;4993859;28;20089;-78
2021/10/13 03:28:17;;;;;;;32.67;19.73;;;11.30;99.90;;;;;;4993757;28;20022;-77
2021/10/13 03:30:44;;;;;;;33.17;19.58;;;11.40;99.90;;;;;;4993657;28;20084;-78
2021/10/13 03:33:16;;;;;;;34.67;20.05;;;11.40;99.90;;;;;;4993668;28;20274;-77
2021/10/13 03:35:42;;;;;;;31.15;19.13;;;11.40;99.90;;;;;;4976140;28;20041;-77
2021/10/13 03:38:09;;;;;;;28.73;19.02;;;11.40;99.90;;;;;;4993038;28;20027;-77
2021/10/13 03:40:35;;;;;;;27.40;18.83;;;11.40;99.90;;;;;;4993534;28;20022;-77
2021/10/13 03:43:01;;;;;;;26.83;18.45;;;11.40;99.90;;;;;;4993531;28;20027;-77
2021/10/13 03:45:27;;;;;;;29.52;18.02;;;11.30;99.90;;;;;;4975967;28;20030;-77
2021/10/13 03:47:53;;;;;;;30.08;18.55;;;11.30;99.90;;;;;;4993391;28;20440;-78
2021/10/13 03:50:21;;;;;;;30.08;19.30;;;11.30;99.90;;;;;;4993401;28;20480;-78
2021/10/13 03:52:47;;;;;;;31.80;19.42;;;11.30;99.90;;;;;;4993345;28;20077;-78
2021/10/13 03:55:15;;;;;;;32.08;18.25;;;11.30;99.90;;;;;;4959492;28;20054;-78
2021/10/13 03:57:41;;;;;;;27.38;18.20;;;11.30;99.90;;;;;;4956392;28;20050;-77
2021/10/13 04:00:10;;;;;;;31.17;19.23;;;11.30;99.90;;;;;;4972501;28;20476;-77
2021/10/13 04:02:36;;;;;;;26.70;17.77;;;11.30;99.90;;;;;;4973551;28;20031;-77
2021/10/13 04:05:03;;;;;;;28.88;18.30;;;11.30;99.90;;;;;;4987363;28;20443;-77
2021/10/13 04:07:29;;;;;;;27.45;17.60;;;11.40;99.90;;;;;;4991718;28;20073;-77
2021/10/13 04:09:55;;;;;;;29.60;18.63;;;11.40;99.90;;;;;;4993113;28;20423;-77
2021/10/13 04:12:21;;;;;;;29.52;17.75;;;11.40;99.90;;;;;;4993005;28;20495;-77
2021/10/13 04:14:46;;;;;;;28.55;18.77;;;11.40;99.90;;;;;;4992911;28;20027;-77
2021/10/13 04:17:12;;;;;;;28.80;18.02;;;11.40;99.90;;;;;;4992623;28;20026;-77
2021/10/13 04:19:38;;;;;;;27.55;17.85;;;11.40;99.90;;;;;;4991518;28;20027;-77
2021/10/13 04:22:04;;;;;;;29.23;17.88;;;11.40;99.90;;;;;;4991491;28;20026;-77
2021/10/13 04:24:30;;;;;;;29.40;17.35;;;11.30;99.90;;;;;;4992726;28;20046;-78
2021/10/13 04:26:56;;;;;;;25.98;16.63;;;11.40;99.90;;;;;;4992805;28;20451;-77
2021/10/13 04:29:22;;;;;;;27.23;16.65;;;11.30;99.90;;;;;;4992761;28;20030;-78
2021/10/13 04:31:48;;;;;;;28.35;17.25;;;11.40;99.90;;;;;;4992515;28;20026;-78
2021/10/13 04:34:13;;;;;;;25.95;17.05;;;11.40;99.90;;;;;;4992741;28;20034;-78
2021/10/13 04:36:39;;;;;;;26.33;17.27;;;11.40;99.90;;;;;;4992505;28;20034;-78
2021/10/13 04:39:05;;;;;;;29.48;17.15;;;11.40;99.90;;;;;;4975035;28;20027;-78
2021/10/13 04:41:33;;;;;;;26.08;17.40;;;11.40;99.90;;;;;;4992634;28;20113;-78
2021/10/13 04:43:59;;;;;;;24.48;16.52;;;11.30;99.90;;;;;;4992373;28;20019;-78
2021/10/13 04:46:24;;;;;;;28.48;16.20;;;11.30;99.90;;;;;;4992393;28;20030;-78
2021/10/13 04:48:50;;;;;;;26.10;17.13;;;11.40;99.90;;;;;;4992176;28;20550;-78
2021/10/13 04:51:16;;;;;;;26.15;16.30;;;11.40;99.90;;;;;;4991624;28;20026;-78
2021/10/13 04:53:42;;;;;;;24.98;15.23;;;11.40;99.90;;;;;;4991133;28;20034;-78
2021/10/13 04:56:07;;;;;;;26.45;16.10;;;11.40;99.90;;;;;;4974543;28;20037;-78
2021/10/13 04:58:33;;;;;;;23.20;15.18;;;11.50;99.90;;;;;;4994640;28;20018;-78
2021/10/13 05:00:59;;;;;;;26.73;16.10;;;11.40;99.90;;;;;;4992053;28;20030;-78
2021/10/13 05:03:25;;;;;;;26.52;15.50;;;11.30;99.90;;;;;;4974787;28;20026;-78
2021/10/13 05:05:51;;;;;;;27.77;15.88;;;11.30;99.90;;;;;;4992255;28;20157;-78
2021/10/13 05:08:17;;;;;;;28.98;16.65;;;11.30;99.90;;;;;;4990900;28;20030;-78
2021/10/13 05:10:42;;;;;;;23.95;14.95;;;11.30;99.90;;;;;;4992036;28;20033;-78
2021/10/13 05:13:08;;;;;;;25.27;15.90;;;11.40;99.90;;;;;;4992097;28;20278;-78
2021/10/13 05:15:35;;;;;;;24.58;14.38;;;11.40;99.90;;;;;;4990312;28;20031;-79
2021/10/13 05:18:01;;;;;;;21.65;14.77;;;11.40;99.90;;;;;;4990343;28;20349;-78
2021/10/13 05:20:27;;;;;;;25.83;15.05;;;11.50;99.90;;;;;;4988663;28;20022;-78
2021/10/13 05:22:53;;;;;;;20.33;13.75;;;11.60;99.90;;;;;;4990242;28;20346;-78
2021/10/13 05:25:19;;;;;;;23.30;14.75;;;11.60;99.90;;;;;;4989978;28;20066;-79
2021/10/13 05:27:45;;;;;;;22.45;14.07;;;11.60;99.90;;;;;;4990064;28;20089;-78
2021/10/13 05:30:11;;;;;;;21.48;13.23;;;11.60;99.90;;;;;;4990320;28;20034;-78
2021/10/13 05:32:37;;;;;;;19.45;13.50;;;11.60;99.90;;;;;;4993422;28;20439;-79
2021/10/13 05:35:03;;;;;;;20.58;14.13;;;11.60;99.90;;;;;;4993342;28;20026;-78
2021/10/13 05:37:29;;;;;;;22.63;13.50;;;11.70;99.90;;;;;;4974283;28;20080;-77
2021/10/13 05:39:55;;;;;;;21.30;13.85;;;11.70;99.90;;;;;;4991685;28;20027;-77
2021/10/13 05:42:20;;;;;;;25.08;13.95;;;11.70;99.90;;;;;;4990819;28;20030;-77
2021/10/13 05:44:46;;;;;;;24.80;14.15;;;11.70;99.90;;;;;;4991811;28;20031;-77
2021/10/13 05:47:12;;;;;;;19.48;12.45;;;11.60;99.90;;;;;;4991845;28;20029;-77
2021/10/13 05:49:38;;;;;;;18.85;12.80;;;11.60;99.90;;;;;;4991652;28;20027;-77
2021/10/13 05:52:05;;;;;;;20.00;13.02;;;11.60;99.90;;;;;;4991773;28;20400;-77
2021/10/13 05:54:31;;;;;;;20.50;12.95;;;11.50;99.90;;;;;;4991667;28;20503;-77
2021/10/13 05:56:57;;;;;;;19.30;12.55;;;11.60;99.90;;;;;;4990024;28;20022;-77
2021/10/13 05:59:23;;;;;;;19.65;12.55;;;11.50;99.90;;;;;;4972526;28;20058;-77
2021/10/13 06:01:49;;;;;;;19.13;12.32;;;11.50;99.90;;;;;;4974123;28;20377;-77
2021/10/13 06:04:14;;;;;;;18.60;11.95;;;11.50;99.90;;;;;;4972327;28;20035;-77
2021/10/13 06:06:40;;;;;;;22.23;12.63;;;11.40;99.90;;;;;;4994130;28;20027;-77
2021/10/13 06:09:06;;;;;;;20.63;13.07;;;11.30;99.90;;;;;;4995324;28;20031;-77
2021/10/13 06:11:32;;;;;;;19.90;11.05;;;11.30;99.90;;;;;;4993855;28;20026;-77
2021/10/13 06:13:58;;;;;;;17.10;11.77;;;11.20;99.90;;;;;;4995154;28;20399;-77
2021/10/13 06:16:24;;;;;;;17.88;11.80;;;11.20;99.90;;;;;;4995047;28;20026;-77
2021/10/13 06:18:50;;;;;;;19.08;11.65;;;11.20;99.90;;;;;;4995210;28;20034;-77
2021/10/13 06:21:20;;;;;;;17.98;11.93;;;11.20;99.90;;;;;;4995064;28;20142;-77
2021/10/13 06:23:47;;;;;;;21.58;11.30;;;11.20;99.90;;;;;;4994647;28;20046;-77
2021/10/13 06:26:13;;;;;;;18.45;11.63;;;11.10;99.90;;;;;;4983681;28;20113;-77
2021/10/13 06:28:39;;;;;;;19.25;11.85;;;11.20;99.90;;;;;;4994158;28;20033;-77
2021/10/13 06:31:05;;;;;;;17.88;11.63;;;11.20;99.90;;;;;;4994319;28;20031;-77
2021/10/13 06:33:32;;;;;;;18.33;12.43;;;11.20;99.90;;;;;;4994528;28;20026;-77
2021/10/13 06:35:59;;;;;;;19.63;11.40;;;11.20;99.90;;;;;;4995523;28;20060;-77
2021/10/13 06:38:25;;;;;;;16.88;11.02;;;11.20;99.90;;;;;;4995281;28;20448;-77
2021/10/13 06:40:51;;;;;;;16.55;10.65;;;11.30;99.90;;;;;;4994229;28;20023;-76
2021/10/13 06:43:17;;;;;;;17.55;10.30;;;11.40;99.90;;;;;;4976660;28;20018;-77
2021/10/13 06:45:43;;;;;;;23.85;12.75;;;11.30;99.90;;;;;;4976608;28;20496;-77
2021/10/13 06:48:09;;;;;;;20.90;14.38;;;11.50;99.90;;;;;;4993948;28;20388;-77
2021/10/13 06:50:36;;;;;;;26.55;13.90;;;11.50;99.90;;;;;;4979064;28;20056;-77
2021/10/13 06:53:03;;;;;;;24.83;14.77;;;11.40;99.90;;;;;;4976565;28;20030;-77
2021/10/13 06:55:29;;;;;;;21.50;14.10;;;11.40;99.90;;;;;;4993655;28;20049;-77
2021/10/13 06:57:54;;;;;;;20.80;14.05;;;11.50;99.90;;;;;;4993989;28;20403;-77
2021/10/13 07:00:20;;;;;;;22.83;13.68;;;11.50;99.90;;;;;;4993849;28;20026;-77
2021/10/13 07:02:46;;;;;;;24.25;14.43;;;11.50;99.90;;;;;;4994073;28;20026;-78
2021/10/13 07:05:12;;;;;;;22.67;14.80;;;11.60;99.90;;;;;;4978205;28;20034;-78
2021/10/13 07:07:45;;;;;;;22.50;14.90;;;11.60;99.90;;;;;;4995523;28;20040;-78
2021/10/13 07:10:12;;;;;;;24.00;15.38;;;11.70;99.90;;;;;;4977995;28;20612;-78
2021/10/13 07:12:38;;;;;;;24.73;15.07;;;11.70;99.90;;;;;;4977363;28;20033;-78
2021/10/13 07:15:06;;;;;;;24.15;15.32;;;11.80;99.90;;;;;;4994267;28;20045;-78
2021/10/13 07:17:32;;;;;;;25.33;15.85;;;11.80;99.90;;;;;;4993727;28;20518;-78
2021/10/13 07:19:59;;;;;;;26.10;15.38;;;11.70;99.90;;;;;;4993767;28;20474;-79
2021/10/13 07:22:26;;;;;;;28.88;17.65;;;11.80;99.90;;;;;;4976129;28;20022;-78
2021/10/13 07:24:52;;;;;;;29.80;19.23;;;11.90;99.90;;;;;;4993391;28;20050;-78
2021/10/13 07:27:19;;;;;;;32.67;19.27;;;11.90;99.90;;;;;;4993610;28;20089;-78
2021/10/13 07:29:46;;;;;;;33.03;20.33;;;11.90;99.90;;;;;;4993337;28;20121;-78
2021/10/13 07:32:12;;;;;;;35.63;21.48;;;11.90;99.90;;;;;;4993764;28;20076;-78
2021/10/13 07:34:38;;;;;;;38.10;21.95;;;11.90;99.90;;;;;;4995038;28;20085;-78
2021/10/13 07:37:04;;;;;;;34.85;21.85;;;12.00;99.90;;;;;;4975811;28;20030;-77
2021/10/13 07:39:30;;;;;;;42.22;22.95;;;12.10;99.90;;;;;;4993478;28;20034;-77
2021/10/13 07:41:56;;;;;;;34.20;22.35;;;12.10;99.90;;;;;;4993460;28;20015;-79
2021/10/13 07:44:22;;;;;;;36.55;21.90;;;12.10;99.90;;;;;;4993483;28;20027;-79
2021/10/13 07:46:48;;;;;;;38.70;22.80;;;12.20;99.90;;;;;;4993365;28;20022;-78
2021/10/13 07:49:14;;;;;;;38.67;21.70;;;12.20;99.90;;;;;;4993172;28;20109;-78
2021/10/13 07:51:40;;;;;;;38.08;21.73;;;12.30;99.90;;;;;;4975895;28;20499;-79
2021/10/13 07:54:06;;;;;;;33.22;20.30;;;12.40;99.90;;;;;;4993260;28;20022;-78
2021/10/13 07:56:32;;;;;;;38.00;20.35;;;12.40;99.90;;;;;;4993142;28;20022;-78
2021/10/13 07:58:57;;;;;;;32.70;20.05;;;12.50;99.90;;;;;;4975639;28;20034;-78
2021/10/13 08:01:23;;;;;;;31.73;18.85;;;12.50;99.90;;;;;;4975644;28;20165;-78
2021/10/13 08:03:49;;;;;;;33.78;19.88;;;12.60;99.90;;;;;;4993010;28;20026;-78
2021/10/13 08:06:15;;;;;;;34.53;20.13;;;12.60;99.90;;;;;;4989831;28;20113;-78
2021/10/13 08:08:41;;;;;;;30.20;18.65;;;12.60;99.90;;;;;;4992764;28;20030;-79
2021/10/13 08:11:07;;;;;;;31.13;19.45;;;12.70;99.90;;;;;;4992922;28;20026;-78
2021/10/13 08:13:33;;;;;;;32.03;19.65;;;12.70;99.90;;;;;;4992897;28;20484;-78
2021/10/13 08:16:02;;;;;;;30.30;19.98;;;12.70;99.90;;;;;;4992850;28;20027;-79
2021/10/13 08:18:28;;;;;;;33.60;19.00;;;12.80;99.90;;;;;;4992675;28;20022;-78
2021/10/13 08:20:54;;;;;;;31.63;18.17;;;12.80;99.90;;;;;;4975183;28;20472;-79
2021/10/13 08:23:21;;;;;;;37.53;19.88;;;12.90;99.90;;;;;;4992681;28;20065;-78
2021/10/13 08:25:48;;;;;;;31.20;18.70;;;12.90;99.90;;;;;;4992628;28;20030;-78
2021/10/13 08:28:14;;;;;;;30.23;18.10;;;12.90;99.90;;;;;;4992686;28;20030;-78
2021/10/13 08:30:39;;;;;;;29.73;18.33;;;13.00;99.90;;;;;;4992663;28;20538;-78
2021/10/13 08:33:05;;;;;;;32.97;19.23;;;13.00;99.90;;;;;;4992460;28;20026;-78
2021/10/13 08:35:31;;;;;;;34.65;18.20;;;13.00;99.90;;;;;;4991087;28;20030;-78
2021/10/13 08:37:56;;;;;;;26.52;17.48;;;13.00;99.90;;;;;;4992548;28;20392;-78
2021/10/13 08:40:23;;;;;;;27.38;17.23;;;13.10;99.90;;;;;;4992458;28;20097;-78
2021/10/13 08:42:54;;;;;;;30.60;16.45;;;13.10;99.90;;;;;;4992612;28;20022;-79
2021/10/13 08:45:22;;;;;;;27.50;16.98;;;13.10;99.90;;;;;;4991155;28;20030;-78
2021/10/13 08:47:48;;;;;;;27.00;18.02;;;13.20;99.90;;;;;;4992298;28;20027;-78
2021/10/13 08:50:14;;;;;;;29.23;16.90;;;13.20;99.90;;;;;;4992152;28;20033;-78
2021/10/13 08:52:39;;;;;;;29.38;17.63;;;13.30;99.90;;;;;;4991027;28;20022;-78
2021/10/13 08:55:07;;;;;;;34.33;19.25;;;13.30;99.90;;;;;;4992249;28;20093;-78
2021/10/13 08:57:33;;;;;;;29.02;17.58;;;13.30;99.90;;;;;;4991329;28;20056;-78
2021/10/13 08:59:58;;;;;;;31.13;16.92;;;13.30;99.90;;;;;;4977659;28;20113;-78
2021/10/13 09:02:41;;;;;;;25.15;15.95;;;13.50;99.90;;;;;;4993482;28;20108;-78
2021/10/13 09:05:08;;;;;;;27.30;16.25;;;13.50;99.90;;;;;;4993667;28;20022;-78
2021/10/13 09:07:35;;;;;;;29.83;16.77;;;13.60;99.90;;;;;;4993753;28;20085;-78
2021/10/13 09:10:01;;;;;;;30.13;17.30;;;13.70;99.90;;;;;;4992216;28;20064;-78
2021/10/13 09:12:35;;;;;;;26.48;15.90;;;13.70;99.90;;;;;;4992284;28;20027;-78
2021/10/13 09:15:09;;;;;;;25.17;15.95;;;13.80;99.90;;;;;;4992164;28;20027;-78
2021/10/13 09:17:56;;;;;;;28.35;16.83;;;13.90;99.90;;;;;;4991939;28;20519;-77
2021/10/13 09:20:24;;;;;;;30.90;18.13;;;14.00;99.90;;;;;;4992013;28;20027;-77
2021/10/13 09:22:59;;;;;;;35.35;19.92;;;14.00;99.90;;;;;;4990688;28;20426;-77
2021/10/13 09:25:25;;;;;;;33.35;19.33;;;14.10;99.90;;;;;;4990457;28;20101;-77
2021/10/13 09:27:51;;;;;;;31.63;18.50;;;14.20;99.90;;;;;;4991924;28;20073;-77
2021/10/13 09:30:34;;;;;;;35.60;20.63;;;14.30;99.90;;;;;;4991890;28;20026;-77
2021/10/13 09:33:19;;;;;;;34.78;19.13;;;14.30;99.90;;;;;;4991960;28;20033;-78
2021/10/13 09:35:50;;;;;;;34.67;19.98;;;14.20;99.90;;;;;;4991857;28;20395;-77
2021/10/13 09:38:22;;;;;;;36.33;22.27;;;14.30;99.90;;;;;;4995768;28;20027;-77
2021/10/13 09:40:49;;;;;;;39.57;21.50;;;14.40;99.90;;;;;;4995791;28;20026;-77
2021/10/13 09:43:36;;;;;;;43.63;22.98;;;14.40;99.90;;;;;;4995745;28;20257;-77
2021/10/13 09:46:07;;;;;;;42.60;21.67;;;14.50;99.90;;;;;;4995953;28;20030;-77
2021/10/13 09:48:35;;;;;;;37.50;23.05;;;14.50;99.90;;;;;;4994499;28;20069;-77
2021/10/13 09:51:19;;;;;;;44.20;23.77;;;14.60;99.90;;;;;;4995859;28;20030;-77
2021/10/13 09:53:47;;;;;;;40.97;22.63;;;14.70;99.90;;;;;;4982860;28;20480;-77
2021/10/13 09:56:32;;;;;;;42.22;23.77;;;14.70;99.90;;;;;;4995893;28;20026;-77
2021/10/13 09:59:16;;;;;;;39.17;22.00;;;14.70;99.90;;;;;;4996747;28;20026;-77
2021/10/13 10:01:48;;;;;;;44.78;24.67;;;14.80;99.90;;;;;;4993980;28;20025;-77
2021/10/13 10:04:18;;;;;;;;;;;14.90;99.90;;;;;;4993891;28;20026;-77
2021/10/13 10:06:48;;;;;;;45.10;23.60;;;14.90;99.90;;;;;;4977883;28;20010;-77
2021/10/13 10:09:19;;;;;;;41.45;22.48;;;15.00;99.90;;;;;;4995702;28;20034;-78
2021/10/13 10:11:46;;;;;;;38.47;20.83;;;15.10;99.90;;;;;;4996639;28;20018;-78
2021/10/13 10:14:31;;;;;;;37.55;22.15;;;15.10;99.90;;;;;;4996894;28;20073;-78
2021/10/13 10:16:58;;;;;;;41.50;21.90;;;15.20;99.90;;;;;;5000274;28;20029;-78
2021/10/13 10:19:28;;;;;;;38.42;22.13;;;15.20;99.90;;;;;;5007740;28;20476;-77
2021/10/13 10:22:06;;;;;;;39.35;22.65;;;15.30;99.90;;;;;;4993597;28;20018;-77
2021/10/13 10:24:34;;;;;;;40.65;23.00;;;15.40;99.90;;;;;;4995882;28;20050;-78
2021/10/13 10:27:27;;;;;;;48.30;23.05;;;15.40;99.90;;;;;;4982255;28;20025;-77
2021/10/13 10:30:08;;;;;;;44.88;23.13;;;15.40;99.90;;;;;;4970809;28;20035;-78
2021/10/13 10:32:46;;;;;;;41.42;24.15;;;15.40;99.90;;;;;;4995984;28;20037;-78
2021/10/13 10:35:14;;;;;;;43.83;23.48;;;15.40;99.90;;;;;;4995948;28;20034;-78
2021/10/13 10:37:43;;;;;;;44.83;24.48;;;15.50;99.90;;;;;;5000987;28;20030;-77
2021/10/13 10:40:30;;;;;;;40.10;23.40;;;15.60;99.90;;;;;;5001321;28;20015;-77
2021/10/13 10:43:18;;;;;;;45.45;24.23;;;15.60;99.90;;;;;;4993665;28;20060;-77
2021/10/13 10:45:58;;;;;;;38.45;22.10;;;15.60;99.90;;;;;;4993777;28;20026;-77
2021/10/13 10:48:45;;;;;;;39.60;23.23;;;15.60;99.90;;;;;;4979227;28;20026;-77
2021/10/13 10:51:11;;;;;;;38.78;21.27;;;15.80;99.90;;;;;;4984967;28;20393;-78
2021/10/13 10:53:42;;;;;;;38.03;21.35;;;15.80;99.90;;;;;;4995499;28;20034;-78
2021/10/13 10:56:17;;;;;;;38.22;21.02;;;15.90;99.90;;;;;;4995559;28;20028;-78
2021/10/13 10:59:03;;;;;;;33.20;20.25;;;15.90;99.90;;;;;;4995697;28;20381;-78
2021/10/13 11:01:30;;;;;;;35.42;20.77;;;15.90;99.90;;;;;;4959035;28;20373;-77
2021/10/13 11:03:56;;;;;;;34.70;21.02;;;15.90;99.90;;;;;;4982390;28;20018;-78
2021/10/13 11:06:28;;;;;;;34.97;20.38;;;15.90;99.90;;;;;;4995272;28;20049;-78
2021/10/13 11:09:09;;;;;;;35.40;20.50;;;15.90;99.90;;;;;;4994326;28;20449;-77
2021/10/13 11:11:39;;;;;;;33.63;18.60;;;15.90;99.90;;;;;;4994806;28;20357;-77
2021/10/13 11:14:11;;;;;;;35.33;20.33;;;15.80;99.90;;;;;;4995398;28;20265;-78
2021/10/13 11:16:38;;;;;;;;;;;15.90;99.90;;;;;;4995408;28;20026;-79
2021/10/13 11:19:06;;;;;;;32.97;17.80;;;15.90;99.90;;;;;;4995169;28;19906;-78
2021/10/13 11:21:32;;;;;;;32.88;18.33;;;16.00;99.90;;;;;;4995361;28;20046;-78
2021/10/13 11:23:58;;;;;;;29.67;18.10;;;16.10;99.90;;;;;;4977484;28;20077;-77
2021/10/13 11:26:28;;;;;;;33.38;18.90;;;16.10;99.90;;;;;;4995327;28;20114;-78
2021/10/13 11:28:54;;;;;;;37.17;18.67;;;16.10;99.90;;;;;;4994905;28;20093;-78
2021/10/13 11:31:20;;;;;;;30.23;17.83;;;16.20;99.90;;;;;;4994595;28;20117;-78
2021/10/13 11:33:46;;;;;;;30.67;18.90;;;16.20;99.90;;;;;;4994538;28;20025;-78
2021/10/13 11:36:12;;;;;;;34.72;18.90;;;16.20;99.90;;;;;;4994784;28;20030;-78
2021/10/13 11:38:40;;;;;;;31.67;18.02;;;16.20;99.90;;;;;;4977293;28;20015;-78
2021/10/13 11:41:13;;;;;;;32.15;18.55;;;16.30;99.90;;;;;;4977185;28;20022;-78
2021/10/13 11:43:40;;;;;;;34.35;18.85;;;16.30;99.90;;;;;;4994967;28;20046;-78
2021/10/13 11:46:14;;;;;;;30.02;17.52;;;16.30;99.90;;;;;;4994695;28;20032;-78
2021/10/13 11:48:40;;;;;;;29.70;16.55;;;16.30;99.90;;;;;;4976589;28;20027;-77
2021/10/13 11:51:14;;;;;;;28.58;17.23;;;16.30;99.90;;;;;;4994516;28;20030;-77
2021/10/13 11:53:41;;;;;;;26.10;15.25;;;16.40;99.90;;;;;;4994555;28;20022;-78
2021/10/13 11:56:12;;;;;;;32.42;16.23;;;16.40;99.90;;;;;;4994456;28;20064;-78
2021/10/13 11:58:39;;;;;;;26.88;16.85;;;16.40;99.90;;;;;;4992922;28;20022;-77
2021/10/13 12:01:05;;;;;;;31.23;16.65;;;16.50;99.90;;;;;;4975907;28;20035;-77
2021/10/13 12:03:36;;;;;;;25.25;15.75;;;16.50;99.90;;;;;;4993300;28;20049;-77
2021/10/13 12:06:03;;;;;;;28.77;15.25;;;16.60;99.90;;;;;;4975643;28;20053;-77
2021/10/13 12:08:39;;;;;;;25.17;15.68;;;16.60;99.90;;;;;;4993018;28;20018;-76
2021/10/13 12:11:18;;;;;;;21.95;12.93;;;16.60;99.90;;;;;;4989869;28;20077;-76
2021/10/13 12:13:51;;;;;;;24.40;13.13;;;16.70;99.90;;;;;;4993476;28;20089;-78
2021/10/13 12:16:27;;;;;;;20.52;11.85;;;16.80;99.90;;;;;;4993511;28;20034;-77
2021/10/13 12:18:53;;;;;;;28.23;14.05;;;16.90;99.80;;;;;;4976348;28;20096;-77
2021/10/13 12:21:23;;;;;;;24.52;13.02;;;17.00;99.80;;;;;;4976015;28;20394;-77
2021/10/13 12:24:09;;;;;;;19.98;11.57;;;17.00;99.80;;;;;;4972491;28;20046;-78
2021/10/13 12:26:43;;;;;;;20.20;11.98;;;17.10;99.90;;;;;;4992647;28;20058;-77
2021/10/13 12:29:11;;;;;;;24.45;11.80;;;17.10;99.90;;;;;;4975291;28;20141;-78
2021/10/13 12:31:42;;;;;;;19.88;11.85;;;17.20;99.50;;;;;;4993018;28;20420;-77
2021/10/13 12:34:14;;;;;;;23.98;12.60;;;17.20;99.50;;;;;;4974981;28;20471;-77
2021/10/13 12:36:54;;;;;;;21.73;13.93;;;17.20;99.40;;;;;;4991355;28;20686;-77
2021/10/13 12:39:29;;;;;;;20.83;11.63;;;17.30;99.30;;;;;;4970820;28;20412;-77